createdAt,value
2023-03-04T00:01:30.188Z,100585.98
2023-03-04T00:06:37.327Z,100551.29
2023-03-04T00:11:44.452Z,100530.72
2023-03-04T00:16:51.616Z,100512.18
2023-03-04T00:21:58.798Z,100492.23
2023-03-04T00:27:05.861Z,100481.59
2023-03-04T00:32:13.202Z,100468.72
2023-03-04T00:37:20.626Z,100459.10
2023-03-04T00:42:27.881Z,100451.66
2023-03-04T00:47:35.083Z,100448.70
2023-03-04T00:52:42.503Z,100455.02
2023-03-04T00:57:49.645Z,100460.88
2023-03-04T01:02:56.746Z,100461.66
2023-03-04T01:08:03.864Z,100463.34
2023-03-04T01:13:11.012Z,100463.77
2023-03-04T01:18:18.204Z,100458.60
2023-03-04T01:23:25.450Z,100456.53
2023-03-04T01:28:36.123Z,100454.58
2023-03-04T01:33:43.344Z,100452.55
2023-03-04T01:38:50.483Z,100444.81
2023-03-04T01:44:00.989Z,100435.55
2023-03-04T01:49:11.195Z,100428.88
2023-03-04T01:54:18.510Z,100428.35
2023-03-04T01:59:28.598Z,100427.91
2023-03-04T02:04:37.020Z,100421.33
2023-03-04T02:09:44.268Z,100414.11
2023-03-04T02:14:53.461Z,100406.98
2023-03-04T02:20:06.983Z,100406.00
2023-03-04T02:25:21.019Z,100396.20
2023-03-04T02:30:28.897Z,100395.09
2023-03-04T02:35:36.151Z,100393.39
2023-03-04T02:40:48.417Z,100389.19
2023-03-04T02:45:55.648Z,100383.85
2023-03-04T02:51:03.551Z,100383.80
2023-03-04T02:56:12.819Z,100376.12
2023-03-04T03:01:20.514Z,100374.77
2023-03-04T03:06:28.230Z,100373.84
2023-03-04T03:11:35.583Z,100369.36
2023-03-04T03:16:44.599Z,100364.11
2023-03-04T03:21:51.909Z,100360.56
2023-03-04T03:26:59.120Z,100357.09
2023-03-04T03:32:06.660Z,100355.42
2023-03-04T03:37:14.135Z,100354.38
2023-03-04T03:42:21.210Z,100352.27
2023-03-04T03:47:28.536Z,100354.48
2023-03-04T03:52:35.674Z,100352.72
2023-03-04T03:57:42.804Z,100351.02
2023-03-04T04:02:50.292Z,100348.45
2023-03-04T04:07:57.550Z,100353.47
2023-03-04T04:13:04.719Z,100356.73
2023-03-04T04:18:11.923Z,100349.61
2023-03-04T04:23:19.017Z,100347.56
2023-03-04T04:28:26.282Z,100343.78
2023-03-04T04:33:33.384Z,100340.36
2023-03-04T04:38:40.558Z,100334.64
2023-03-04T04:43:47.763Z,100326.55
2023-03-04T04:48:54.937Z,100319.26
2023-03-04T04:54:03.443Z,100317.49
2023-03-04T04:59:10.618Z,100312.64
2023-03-04T05:04:17.825Z,100312.02
2023-03-04T05:09:25.180Z,100308.39
2023-03-04T05:14:32.365Z,100305.91
2023-03-04T05:19:39.598Z,100295.16
2023-03-04T05:24:46.756Z,100296.29
2023-03-04T05:29:55.711Z,100294.84
2023-03-04T05:35:02.791Z,100298.38
2023-03-04T05:40:12.598Z,100300.05
2023-03-04T05:45:19.959Z,100298.34
2023-03-04T05:50:27.931Z,100299.58
2023-03-04T05:55:35.592Z,100302.98
2023-03-04T06:00:42.771Z,100301.83
2023-03-04T06:05:49.938Z,100302.16
2023-03-04T06:10:59.223Z,100301.54
2023-03-04T06:16:06.958Z,100301.20
2023-03-04T06:21:14.168Z,100297.20
2023-03-04T06:26:21.314Z,100296.02
2023-03-04T06:31:28.507Z,100296.29
2023-03-04T06:36:35.629Z,100294.24
2023-03-04T06:41:42.999Z,100297.36
2023-03-04T06:46:50.171Z,100295.59
2023-03-04T06:51:57.542Z,100297.45
2023-03-04T06:57:04.835Z,100295.86
2023-03-04T07:02:14.484Z,100295.94
2023-03-04T07:07:21.644Z,100294.80
2023-03-04T07:12:29.011Z,100298.05
2023-03-04T07:17:36.205Z,100295.75
2023-03-04T07:22:43.410Z,100295.21
2023-03-04T07:27:50.675Z,100295.52
2023-03-04T07:32:59.882Z,100289.27
2023-03-04T07:38:07.056Z,100280.42
2023-03-04T07:43:15.798Z,100275.48
2023-03-04T07:48:23.633Z,100275.88
2023-03-04T07:53:29.225Z,100273.23
2023-03-04T07:58:36.664Z,100265.74
2023-03-04T08:03:44.773Z,100261.99
2023-03-04T08:08:56.969Z,100257.65
2023-03-04T08:14:04.202Z,100259.58
2023-03-04T08:19:12.495Z,100252.71
2023-03-04T08:24:19.794Z,100250.11
2023-03-04T08:29:27.761Z,100245.80
2023-03-04T08:34:33.362Z,100245.02
2023-03-04T08:39:40.468Z,100245.48
2023-03-04T08:44:47.642Z,100239.77
2023-03-04T08:49:54.696Z,100240.58
2023-03-04T08:55:02.265Z,100243.02
2023-03-04T09:00:13.278Z,100241.57
2023-03-04T09:05:24.054Z,100240.35
2023-03-04T09:10:31.231Z,100246.03
2023-03-04T09:15:38.577Z,100254.86
2023-03-04T09:20:45.950Z,100260.43
2023-03-04T09:25:53.274Z,100258.52
2023-03-04T09:31:00.403Z,100261.17
2023-03-04T09:36:08.625Z,100255.64
2023-03-04T09:41:21.935Z,100258.45
2023-03-04T09:46:35.634Z,100252.40
2023-03-04T09:51:56.879Z,100250.22
2023-03-04T09:57:23.224Z,100246.05
2023-03-04T10:02:38.001Z,100243.61
2023-03-04T10:07:48.329Z,100242.73
2023-03-04T10:12:59.267Z,100242.79
2023-03-04T10:18:15.692Z,100243.38
2023-03-04T10:23:26.652Z,100248.54
2023-03-04T10:28:35.578Z,100238.63
2023-03-04T10:33:43.386Z,100243.53
2023-03-04T10:38:51.007Z,100250.39
2023-03-04T10:44:06.213Z,100248.61
2023-03-04T10:49:16.083Z,100249.41
2023-03-04T10:54:30.226Z,100249.27
2023-03-04T10:59:44.258Z,100253.13
2023-03-04T11:04:57.180Z,100256.89
2023-03-04T11:10:20.919Z,100259.68
2023-03-04T11:15:31.462Z,100265.08
2023-03-04T11:20:51.726Z,100274.59
2023-03-04T11:26:06.255Z,100281.23
2023-03-04T11:31:19.346Z,100282.95
2023-03-04T11:36:35.792Z,100277.50
2023-03-04T11:41:48.582Z,100279.65
2023-03-04T11:47:06.934Z,100283.19
2023-03-04T11:52:24.472Z,100286.15
2023-03-04T11:57:39.665Z,100289.73
2023-03-04T12:03:00.111Z,100288.58
2023-03-04T12:08:47.339Z,100290.09
2023-03-04T12:14:21.552Z,100293.83
2023-03-04T12:19:42.512Z,100294.22
2023-03-04T12:25:26.082Z,100295.97
2023-03-04T12:30:43.390Z,100295.18
2023-03-04T12:36:00.053Z,100303.02
2023-03-04T12:41:24.348Z,100312.96
2023-03-04T12:46:52.958Z,100312.67
2023-03-04T12:52:10.662Z,100319.77
2023-03-04T12:57:21.183Z,100324.21
2023-03-04T13:02:56.548Z,100329.83
2023-03-04T13:08:14.374Z,100326.85
2023-03-04T13:13:42.634Z,100326.92
2023-03-04T13:18:49.925Z,100330.42
2023-03-04T13:23:57.960Z,100332.29
2023-03-04T13:29:26.174Z,100331.65
2023-03-04T13:34:48.605Z,100333.13
2023-03-04T13:40:39.767Z,100330.57
2023-03-04T13:45:47.038Z,100326.02
2023-03-04T13:51:45.768Z,100325.96
2023-03-04T13:57:25.771Z,100323.89
2023-03-04T14:02:36.809Z,100330.36
2023-03-04T14:07:45.643Z,100326.66
2023-03-04T14:12:56.086Z,100326.23
2023-03-04T14:18:07.438Z,100328.27
2023-03-04T14:23:29.135Z,100329.35
2023-03-04T14:28:43.278Z,100329.89
2023-03-04T14:33:53.010Z,100334.38
2023-03-04T14:39:02.959Z,100338.66
2023-03-04T14:44:18.369Z,100343.42
2023-03-04T14:49:26.306Z,100347.79
2023-03-04T14:54:36.584Z,100355.14
2023-03-04T14:59:43.828Z,100363.50
2023-03-04T15:04:54.021Z,100370.72
2023-03-04T15:10:04.792Z,100374.52
2023-03-04T15:15:37.809Z,100386.27
2023-03-04T15:20:53.460Z,100395.25
2023-03-04T15:26:03.378Z,100398.88
2023-03-04T15:31:18.605Z,100406.95
2023-03-04T15:36:26.202Z,100413.98
2023-03-04T15:41:33.445Z,100419.45
2023-03-04T15:46:40.923Z,100432.09
2023-03-04T15:51:50.525Z,100444.91
2023-03-04T15:56:58.556Z,100455.25
2023-03-04T16:02:07.337Z,100465.77
2023-03-04T16:07:19.792Z,100472.55
2023-03-04T16:12:28.252Z,100475.10
2023-03-04T16:17:35.780Z,100489.82
2023-03-04T16:22:43.557Z,100491.36
2023-03-04T16:27:56.209Z,100497.42
2023-03-04T16:33:03.396Z,100506.67
2023-03-04T16:38:20.493Z,100519.27
2023-03-04T16:43:29.041Z,100531.46
2023-03-04T16:48:36.646Z,100541.54
2023-03-04T16:53:46.180Z,100552.98
2023-03-04T16:58:54.402Z,100560.45
2023-03-04T17:04:02.085Z,100567.44
2023-03-04T17:09:10.614Z,100575.23
2023-03-04T17:14:18.107Z,100582.34
2023-03-04T17:19:25.237Z,100588.73
2023-03-04T17:24:33.228Z,100597.26
2023-03-04T17:29:40.439Z,100599.33
2023-03-04T17:34:47.690Z,100606.48
2023-03-04T17:39:55.378Z,100613.05
2023-03-04T17:45:02.577Z,100615.54
2023-03-04T17:50:11.397Z,100618.71
2023-03-04T17:55:18.672Z,100621.94
2023-03-04T18:00:27.073Z,100627.98
2023-03-04T18:05:34.338Z,100626.84
2023-03-04T18:10:41.525Z,100628.92
2023-03-04T18:15:48.939Z,100627.64
2023-03-04T18:21:01.425Z,100628.08
2023-03-04T18:26:09.070Z,100629.20
2023-03-04T18:31:18.884Z,100630.09
2023-03-04T18:36:27.062Z,100631.06
2023-03-04T18:41:34.348Z,100629.09
2023-03-04T18:46:45.367Z,100630.21
2023-03-04T18:51:52.896Z,100633.95
2023-03-04T18:57:04.404Z,100638.30
2023-03-04T19:02:20.189Z,100643.55
2023-03-04T19:07:27.615Z,100643.42
2023-03-04T19:12:35.194Z,100646.36
2023-03-04T19:17:45.419Z,100645.45
2023-03-04T19:22:52.704Z,100648.65
2023-03-04T19:28:01.240Z,100653.98
2023-03-04T19:33:10.428Z,100650.45
2023-03-04T19:38:17.764Z,100646.25
2023-03-04T19:43:24.999Z,100647.31
2023-03-04T19:48:32.214Z,100647.98
2023-03-04T19:53:40.630Z,100648.89
2023-03-04T19:58:48.449Z,100652.83
2023-03-04T20:03:54.124Z,100652.81
2023-03-04T20:09:02.434Z,100652.23
2023-03-04T20:14:10.439Z,100653.27
2023-03-04T20:19:17.804Z,100654.31
2023-03-04T20:24:25.261Z,100655.80
2023-03-04T20:29:33.060Z,100657.56
2023-03-04T20:34:42.248Z,100653.06
2023-03-04T20:39:52.708Z,100651.02
2023-03-04T20:45:00.761Z,100648.58
2023-03-04T20:50:09.782Z,100650.27
2023-03-04T20:55:17.771Z,100647.61
2023-03-04T21:00:25.904Z,100644.52
2023-03-04T21:05:34.289Z,100644.08
2023-03-04T21:10:41.810Z,100642.06
2023-03-04T21:15:53.161Z,100639.02
2023-03-04T21:21:00.902Z,100634.60
2023-03-04T21:26:07.132Z,100627.05
2023-03-04T21:31:19.643Z,100632.50
2023-03-04T21:36:28.886Z,100626.95
2023-03-04T21:41:37.444Z,100622.16
2023-03-04T21:46:45.669Z,100617.77
2023-03-04T21:51:53.750Z,100612.12
2023-03-04T21:57:01.375Z,100610.02
2023-03-04T22:02:15.457Z,100604.69
2023-03-04T22:07:23.244Z,100608.80
2023-03-04T22:12:31.130Z,100605.35
2023-03-04T22:17:38.825Z,100601.09
2023-03-04T22:22:46.358Z,100599.08
2023-03-04T22:27:54.159Z,100594.70
2023-03-04T22:32:59.984Z,100590.20
2023-03-04T22:38:07.737Z,100588.32
2023-03-04T22:43:15.648Z,100586.30
2023-03-04T22:48:23.224Z,100582.14
2023-03-04T22:53:31.048Z,100581.29
2023-03-04T22:58:38.761Z,100577.59
2023-03-04T23:03:49.233Z,100577.86
2023-03-04T23:08:57.757Z,100570.84
2023-03-04T23:14:07.546Z,100564.12
2023-03-04T23:19:18.827Z,100561.60
2023-03-04T23:24:26.919Z,100558.54
2023-03-04T23:29:34.379Z,100551.80
2023-03-04T23:34:41.743Z,100550.52
2023-03-04T23:39:49.140Z,100544.32
2023-03-04T23:44:56.424Z,100539.33
2023-03-04T23:50:04.052Z,100534.80
2023-03-04T23:55:11.332Z,100533.56
